Time;durP1;ratioP1;P1;durP2;ratioP2;P2;SDS_P1;SDS_P2;PMS_P1;PMS_P2;Temp;Humidity;BMP_temperature;BMP_pressure;BME280_temperature;BME280_humidity;BME280_pressure;Samples;Min_cycle;Max_cycle;Signal;HPM_P1;HPM_P2
2021/08/29 00:02:13;;;;;;;8.82;4.50;;;;;;;14.40;64.46;99298.81;4733418;30;20499;-63
2021/08/29 00:04:39;;;;;;;10.15;4.80;;;;;;;14.38;64.72;99300.94;4733249;30;20080;-64
2021/08/29 00:07:05;;;;;;;9.50;5.20;;;;;;;14.38;64.59;99305.47;4731983;30;20060;-62
2021/08/29 00:09:31;;;;;;;12.07;5.47;;;;;;;14.35;64.79;99298.00;4750360;30;20069;-62
2021/08/29 00:11:56;;;;;;;13.23;5.65;;;;;;;14.31;64.65;99290.53;4734949;30;20052;-63
2021/08/29 00:14:22;;;;;;;16.35;5.45;;;;;;;14.32;64.60;99291.31;4750570;30;20056;-64
2021/08/29 00:16:48;;;;;;;9.88;4.70;;;;;;;14.31;64.90;99293.19;4734867;30;20056;-63
2021/08/29 00:19:15;;;;;;;13.07;5.97;;;;;;;14.27;65.06;99278.00;4750606;30;20106;-63
2021/08/29 00:21:41;;;;;;;8.98;5.53;;;;;;;14.29;65.01;99284.69;4750932;30;20079;-63
2021/08/29 00:24:07;;;;;;;9.88;5.25;;;;;;;14.30;64.80;99291.59;4750862;30;20057;-64
2021/08/29 00:26:32;;;;;;;13.48;6.15;;;;;;;14.26;64.95;99285.16;4750828;30;20470;-62
2021/08/29 00:29:09;;;;;;;11.35;5.97;;;;;;;14.22;65.57;99283.31;4750662;30;20118;-63
2021/08/29 00:31:35;;;;;;;10.77;5.45;;;;;;;14.16;65.87;99287.03;4734676;30;20055;-63
2021/08/29 00:34:01;;;;;;;13.93;5.95;;;;;;;14.13;65.95;99284.91;4734836;30;20486;-64
2021/08/29 00:36:27;;;;;;;12.02;5.00;;;;;;;14.10;66.36;99280.88;4734714;30;20046;-63
2021/08/29 00:38:53;;;;;;;10.20;5.28;;;;;;;14.06;66.30;99285.16;4734681;30;20157;-63
2021/08/29 00:41:19;;;;;;;11.35;6.03;;;;;;;14.02;66.41;99276.06;4734577;30;20059;-61
2021/08/29 00:43:45;;;;;;;11.70;5.65;;;;;;;13.95;66.80;99276.31;4749272;30;20060;-63
2021/08/29 00:46:11;;;;;;;11.63;5.78;;;;;;;13.90;67.23;99278.16;4734499;30;20044;-60
2021/08/29 00:48:42;;;;;;;11.48;5.97;;;;;;;13.81;67.20;99272.53;4720278;30;20056;-63
2021/08/29 00:51:08;;;;;;;11.40;5.90;;;;;;;13.74;67.75;99274.66;4734912;30;20049;-63
2021/08/29 00:53:34;;;;;;;11.77;5.53;;;;;;;13.67;67.77;99266.88;4748971;30;20055;-63
2021/08/29 00:56:01;;;;;;;11.05;5.90;;;;;;;13.61;67.81;99278.56;4734165;30;20051;-64
2021/08/29 00:58:28;;;;;;;11.40;5.53;;;;;;;13.59;67.68;99276.19;4734941;30;20056;-63
2021/08/29 01:00:57;;;;;;;10.43;5.57;;;;;;;13.55;67.96;99266.31;4737818;30;20059;-63
2021/08/29 01:03:26;;;;;;;11.27;6.82;;;;;;;13.50;68.38;99255.63;4738001;30;20060;-62
2021/08/29 01:06:17;;;;;;;12.68;6.85;;;;;;;13.44;68.49;99262.78;4737859;30;20055;-62
2021/08/29 01:09:06;;;;;;;12.57;6.30;;;;;;;13.29;68.72;99247.53;4752528;30;20068;-63
2021/08/29 01:11:33;;;;;;;12.40;6.07;;;;;;;13.37;68.84;99263.00;4737828;30;20052;-63
2021/08/29 01:14:08;;;;;;;10.68;5.85;;;;;;;13.33;68.56;99253.97;4737650;30;20052;-64
2021/08/29 01:16:36;;;;;;;11.88;6.35;;;;;;;13.31;68.81;99261.41;4723173;30;20431;-64
2021/08/29 01:19:15;;;;;;;11.93;6.68;;;;;;;13.30;68.70;99256.34;4723102;30;20511;-63
2021/08/29 01:21:45;;;;;;;13.50;6.73;;;;;;;13.29;68.88;99265.38;4752256;30;20083;-63
2021/08/29 01:24:16;;;;;;;11.18;6.57;;;;;;;13.28;68.97;99255.78;4737669;30;20298;-62
2021/08/29 01:26:46;;;;;;;10.45;6.75;;;;;;;13.28;69.11;99253.13;4723416;30;20052;-63
2021/08/29 01:29:14;;;;;;;16.08;7.35;;;;;;;13.28;69.20;99256.59;4722975;30;20059;-62
2021/08/29 01:31:42;;;;;;;13.93;7.03;;;;;;;13.30;68.81;99243.81;4737484;30;20044;-62
2021/08/29 01:34:11;;;;;;;13.88;7.15;;;;;;;13.23;68.85;99245.06;4737311;30;20148;-64
2021/08/29 01:36:41;;;;;;;11.45;6.57;;;;;;;13.27;69.67;99246.22;4737353;30;20067;-62
2021/08/29 01:39:12;;;;;;;13.52;7.82;;;;;;;13.24;69.39;99249.34;4723366;30;20519;-62
2021/08/29 01:41:40;;;;;;;12.98;6.68;;;;;;;13.07;69.49;99220.25;4737366;30;20052;-62
2021/08/29 01:44:07;;;;;;;11.50;6.88;;;;;;;13.18;69.79;99246.66;4722757;30;20052;-62
2021/08/29 01:46:35;;;;;;;12.02;6.60;;;;;;;13.13;70.06;99241.31;4737090;30;20173;-63
2021/08/29 01:49:05;;;;;;;10.60;7.00;;;;;;;13.09;70.11;99234.91;4737171;30;20052;-63
2021/08/29 01:51:31;;;;;;;16.10;7.65;;;;;;;13.09;69.86;99242.09;4737117;30;20044;-62
2021/08/29 01:54:09;;;;;;;11.82;6.75;;;;;;;13.11;69.96;99245.28;4736884;30;20078;-63
2021/08/29 01:57:00;;;;;;;15.65;7.45;;;;;;;13.17;69.67;99244.25;4737128;30;20569;-63
2021/08/29 01:59:27;;;;;;;10.13;6.90;;;;;;;13.21;69.89;99250.66;4737262;30;20052;-62
2021/08/29 02:01:54;;;;;;;13.77;8.07;;;;;;;13.25;69.15;99241.13;4722456;30;20044;-62
2021/08/29 02:04:21;;;;;;;15.52;7.82;;;;;;;13.31;68.99;99239.31;4736892;30;20495;-63
2021/08/29 02:06:55;;;;;;;12.90;7.10;;;;;;;13.35;68.67;99237.72;4737145;30;20126;-62
2021/08/29 02:09:21;;;;;;;16.50;7.80;;;;;;;13.37;68.88;99241.72;4721624;30;20067;-63
2021/08/29 02:11:57;;;;;;;11.90;7.18;;;;;;;13.40;68.66;99235.88;4736731;30;20122;-63
2021/08/29 02:14:49;;;;;;;15.60;7.75;;;;;;;13.43;68.76;99236.44;4738055;30;20064;-64
2021/08/29 02:17:15;;;;;;;15.23;7.35;;;;;;;13.42;68.91;99234.84;4736697;30;20047;-63
2021/08/29 02:19:42;;;;;;;15.40;7.45;;;;;;;13.45;68.62;99237.78;4736594;30;20062;-64
2021/08/29 02:22:10;;;;;;;13.82;7.60;;;;;;;13.47;68.84;99241.00;4722187;30;20117;-62
2021/08/29 02:24:38;;;;;;;16.80;7.32;;;;;;;13.48;69.17;99234.59;4736394;30;20055;-63
2021/08/29 02:27:11;;;;;;;10.60;7.28;;;;;;;13.48;68.85;99239.13;4752543;30;20055;-62
2021/08/29 02:29:38;;;;;;;13.60;6.88;;;;;;;13.47;69.02;99234.84;4736509;30;20048;-64
2021/08/29 02:32:07;;;;;;;18.40;7.57;;;;;;;13.48;68.69;99239.13;4736480;30;20406;-62
2021/08/29 02:34:33;;;;;;;14.52;8.38;;;;;;;13.49;69.10;99244.16;4751005;30;20094;-63
2021/08/29 02:37:01;;;;;;;19.27;7.63;;;;;;;13.51;68.94;99235.94;4736320;30;20132;-63
2021/08/29 02:39:40;;;;;;;16.55;7.57;;;;;;;13.52;69.38;99234.88;4737814;30;20248;-62
2021/08/29 02:42:07;;;;;;;13.93;7.20;;;;;;;13.55;68.72;99239.66;4752246;30;20506;-63
2021/08/29 02:44:38;;;;;;;14.43;8.00;;;;;;;13.57;68.80;99229.56;4736103;30;20060;-64
2021/08/29 02:47:04;;;;;;;15.43;7.45;;;;;;;13.59;68.51;99227.44;4736244;30;20046;-63
2021/08/29 02:49:30;;;;;;;14.15;7.38;;;;;;;13.64;68.40;99233.56;4736056;30;20109;-63
2021/08/29 02:51:56;;;;;;;14.23;7.72;;;;;;;13.71;68.33;99236.00;4721521;30;20050;-63
2021/08/29 02:54:22;;;;;;;18.70;7.30;;;;;;;13.75;68.15;99236.28;4751799;30;20151;-63
2021/08/29 02:56:55;;;;;;;13.65;7.40;;;;;;;13.78;67.89;99239.22;4735960;30;20090;-64
2021/08/29 02:59:21;;;;;;;16.33;8.10;;;;;;;13.74;68.03;99235.50;4735847;30;20470;-63
2021/08/29 03:01:47;;;;;;;17.15;8.30;;;;;;;13.76;67.87;99236.00;4750633;30;20147;-63
2021/08/29 03:04:19;;;;;;;15.40;7.32;;;;;;;13.76;68.47;99240.53;4721290;30;20139;-62
2021/08/29 03:06:45;;;;;;;10.75;7.55;;;;;;;13.73;67.88;99231.19;4735953;30;20193;-63
2021/08/29 03:09:11;;;;;;;12.82;7.90;;;;;;;13.74;68.10;99232.81;4751528;30;20149;-63
2021/08/29 03:11:41;;;;;;;;;;;;;;;13.73;68.17;99238.41;4736355;30;20518;-62
2021/08/29 03:14:10;;;;;;;13.55;7.95;;;;;;;13.71;67.98;99244.00;4750200;30;19937;-63
2021/08/29 03:16:37;;;;;;;15.40;7.38;;;;;;;13.69;67.85;99242.66;4735955;30;20487;-63
2021/08/29 03:19:21;;;;;;;14.10;7.40;;;;;;;13.66;68.24;99240.53;4723231;30;20044;-63
2021/08/29 03:21:54;;;;;;;17.60;8.15;;;;;;;13.63;68.34;99245.28;4734954;30;20413;-64
2021/08/29 03:24:21;;;;;;;21.42;8.05;;;;;;;13.66;68.57;99248.50;4751439;30;20427;-63
2021/08/29 03:26:47;;;;;;;20.75;8.77;;;;;;;13.71;68.43;99238.69;4735475;30;20235;-62
2021/08/29 03:29:25;;;;;;;12.63;8.02;;;;;;;13.81;68.01;99244.03;4735580;30;20059;-63
2021/08/29 03:31:51;;;;;;;12.73;8.07;;;;;;;13.92;67.87;99236.06;4720745;30;20116;-63
2021/08/29 03:34:18;;;;;;;15.52;8.93;;;;;;;14.04;66.43;99231.31;4751410;30;20077;-64
2021/08/29 03:36:44;;;;;;;13.00;9.32;;;;;;;14.12;66.30;99236.13;4735386;30;20052;-63
2021/08/29 03:39:14;;;;;;;14.77;9.20;;;;;;;14.19;66.60;99227.88;4735257;30;20098;-63
2021/08/29 03:41:42;;;;;;;14.13;8.93;;;;;;;14.28;65.86;99227.06;4735407;30;20064;-63
2021/08/29 03:44:13;;;;;;;17.75;8.98;;;;;;;14.36;66.00;99227.63;4735463;30;20054;-63
2021/08/29 03:46:40;;;;;;;17.10;9.13;;;;;;;14.43;65.36;99233.47;4735112;30;20059;-63
2021/08/29 03:49:26;;;;;;;17.63;10.10;;;;;;;14.60;64.79;99234.03;4713678;30;20103;-63
2021/08/29 03:51:53;;;;;;;15.43;9.77;;;;;;;14.63;63.76;99230.84;4713636;30;20207;-62
2021/08/29 03:54:20;;;;;;;16.13;9.00;;;;;;;14.70;63.65;99228.69;4670427;30;20118;-63
2021/08/29 03:56:46;;;;;;;15.90;8.43;;;;;;;14.81;63.42;99223.34;4699034;30;20052;-62
2021/08/29 03:59:12;;;;;;;15.02;9.13;;;;;;;14.95;62.59;99222.53;4699037;30;20064;-63
2021/08/29 04:01:38;;;;;;;12.88;8.75;;;;;;;15.26;61.65;99227.78;4684456;30;20049;-63
2021/08/29 04:04:05;;;;;;;18.67;9.38;;;;;;;15.58;60.70;99223.94;4699062;30;20049;-63
2021/08/29 04:06:34;;;;;;;14.77;9.18;;;;;;;15.83;59.55;99234.53;4684398;30;20055;-63
2021/08/29 04:09:06;;;;;;;17.90;9.55;;;;;;;16.10;58.87;99233.31;4699028;30;20121;-63
2021/08/29 04:11:32;;;;;;;13.27;8.88;;;;;;;16.33;58.36;99229.16;4713482;30;20061;-63
2021/08/29 04:13:59;;;;;;;15.03;9.40;;;;;;;16.48;57.61;99237.06;4698925;30;20083;-63
2021/08/29 04:16:31;;;;;;;14.90;9.38;;;;;;;16.57;57.16;99234.56;4713384;30;20057;-61
2021/08/29 04:19:05;;;;;;;14.60;9.18;;;;;;;16.71;57.10;99232.06;4685469;30;20048;-63
2021/08/29 04:21:35;;;;;;;17.15;9.98;;;;;;;16.77;56.70;99242.47;4715653;30;20550;-63
2021/08/29 04:24:01;;;;;;;14.52;9.38;;;;;;;16.82;56.53;99230.91;4732105;30;20080;-64
2021/08/29 04:26:38;;;;;;;20.38;10.52;;;;;;;16.86;56.49;99223.91;4731805;30;20080;-63
2021/08/29 04:29:04;;;;;;;13.35;9.20;;;;;;;16.97;56.42;99233.44;4732992;30;20045;-63
2021/08/29 04:31:31;;;;;;;20.23;9.55;;;;;;;17.03;56.10;99243.03;4731695;30;20059;-63
2021/08/29 04:34:07;;;;;;;15.68;9.50;;;;;;;17.10;55.91;99247.25;4720951;30;20099;-63
2021/08/29 04:36:42;;;;;;;20.35;10.13;;;;;;;17.13;56.30;99252.03;4722006;30;20157;-63
2021/08/29 04:39:22;;;;;;;16.73;9.93;;;;;;;17.15;55.90;99247.19;4707853;30;20166;-63
2021/08/29 04:41:48;;;;;;;16.77;9.65;;;;;;;17.19;55.34;99250.91;4735161;30;20158;-62
2021/08/29 04:44:14;;;;;;;16.85;10.35;;;;;;;17.30;55.27;99252.38;4735250;30;20055;-64
2021/08/29 04:46:40;;;;;;;16.55;10.23;;;;;;;17.40;55.11;99254.94;4720395;30;20468;-63
2021/08/29 04:49:09;;;;;;;14.77;8.80;;;;;;;17.38;54.80;99246.41;4732038;30;20149;-64
2021/08/29 04:51:36;;;;;;;15.57;10.27;;;;;;;17.35;55.15;99249.63;4748094;30;20095;-63
2021/08/29 04:54:03;;;;;;;16.05;10.27;;;;;;;17.39;55.04;99250.69;4736219;30;20074;-63
2021/08/29 04:56:30;;;;;;;16.33;9.80;;;;;;;17.31;55.60;99250.50;4734184;30;20439;-65
2021/08/29 04:58:55;;;;;;;17.67;10.43;;;;;;;17.28;55.17;99241.16;4734793;30;20048;-65
2021/08/29 05:01:21;;;;;;;14.88;10.25;;;;;;;17.33;55.05;99243.78;4735858;30;20522;-64
2021/08/29 05:03:47;;;;;;;17.65;10.32;;;;;;;17.27;55.61;99238.78;4734893;30;20071;-64
2021/08/29 05:06:14;;;;;;;13.73;9.55;;;;;;;17.16;55.96;99244.22;4748896;30;20520;-62
2021/08/29 05:08:41;;;;;;;15.40;10.25;;;;;;;17.11;55.72;99240.78;4747077;30;20063;-64
2021/08/29 05:11:08;;;;;;;16.05;9.77;;;;;;;17.10;56.22;99256.06;4737740;30;20472;-64
2021/08/29 05:13:35;;;;;;;16.85;10.43;;;;;;;17.10;56.50;99257.97;4737660;30;20511;-63
2021/08/29 05:16:01;;;;;;;12.65;9.82;;;;;;;17.13;56.20;99257.38;4753645;30;20121;-64
2021/08/29 05:18:27;;;;;;;19.73;11.23;;;;;;;17.25;55.93;99253.22;4737837;30;20051;-65
2021/08/29 05:21:11;;;;;;;18.63;10.52;;;;;;;17.44;55.29;99255.97;4737659;30;20143;-64
2021/08/29 05:24:00;;;;;;;17.70;10.25;;;;;;;17.71;54.66;99254.59;4736037;30;20438;-67
2021/08/29 05:26:32;;;;;;;17.92;10.77;;;;;;;17.91;54.65;99248.16;4733766;30;20060;-63
2021/08/29 05:29:01;;;;;;;15.95;10.40;;;;;;;18.08;53.80;99247.69;4736656;30;20052;-65
2021/08/29 05:31:27;;;;;;;16.17;9.95;;;;;;;18.33;53.20;99239.25;4753309;30;20071;-65
2021/08/29 05:33:53;;;;;;;19.95;10.00;;;;;;;18.45;53.21;99238.81;4737182;30;20515;-63
2021/08/29 05:36:19;;;;;;;17.42;10.32;;;;;;;18.52;52.48;99228.50;4751548;30;20052;-63
2021/08/29 05:38:45;;;;;;;16.88;10.23;;;;;;;18.67;52.18;99226.63;4751791;30;20134;-63
2021/08/29 05:41:26;;;;;;;15.18;10.23;;;;;;;18.77;52.48;99229.19;4736306;30;20052;-64
2021/08/29 05:44:30;;;;;;;14.85;9.43;;;;;;;18.83;51.95;99230.69;4714951;30;20143;-61
2021/08/29 05:46:56;;;;;;;16.80;10.38;;;;;;;18.96;51.77;99237.19;4701044;30;20159;-64
2021/08/29 05:49:25;;;;;;;16.13;11.05;;;;;;;19.14;50.92;99246.25;4718828;30;20071;-63
2021/08/29 05:51:51;;;;;;;19.50;11.75;;;;;;;19.31;50.68;99249.16;4751752;30;20048;-63
2021/08/29 05:54:17;;;;;;;17.00;10.82;;;;;;;19.39;50.24;99251.16;4752905;30;20239;-65
2021/08/29 05:56:44;;;;;;;15.77;10.23;;;;;;;19.54;50.14;99254.63;4736928;30;20056;-64
2021/08/29 05:59:10;;;;;;;19.65;10.48;;;;;;;19.82;49.69;99258.09;4751585;30;20665;-66
2021/08/29 06:01:37;;;;;;;17.52;10.55;;;;;;;19.75;49.88;99242.38;4736947;30;20060;-63
2021/08/29 06:04:03;;;;;;;20.98;10.38;;;;;;;19.82;50.11;99240.06;4736864;30;20048;-65
2021/08/29 06:06:48;;;;;;;17.17;10.30;;;;;;;19.91;50.29;99237.47;4736873;30;20087;-64
2021/08/29 06:09:14;;;;;;;19.45;11.13;;;;;;;20.03;49.75;99235.06;4736672;30;20067;-64
2021/08/29 06:11:40;;;;;;;19.63;11.15;;;;;;;19.98;49.32;99235.16;4736763;30;20059;-67
2021/08/29 06:14:07;;;;;;;15.98;10.77;;;;;;;19.73;49.48;99236.50;4736889;30;20075;-65
2021/08/29 06:16:34;;;;;;;16.90;11.18;;;;;;;19.49;50.69;99228.63;4721962;30;20400;-65
2021/08/29 06:19:01;;;;;;;19.67;11.60;;;;;;;19.42;51.08;99225.56;4722081;30;20055;-63
2021/08/29 06:21:27;;;;;;;14.30;10.10;;;;;;;19.43;51.38;99229.84;4736438;30;20070;-63
2021/08/29 06:23:53;;;;;;;17.77;10.27;;;;;;;19.23;51.51;99217.59;4752661;30;20040;-64
2021/08/29 06:26:38;;;;;;;16.15;11.23;;;;;;;19.33;51.51;99235.44;4752387;30;20060;-63
2021/08/29 06:29:42;;;;;;;19.83;10.93;;;;;;;19.41;51.03;99223.97;4714853;30;20126;-65
2021/08/29 06:32:26;;;;;;;17.80;10.40;;;;;;;19.62;50.47;99233.22;4714911;30;20144;-62
2021/08/29 06:35:06;;;;;;;19.42;11.10;;;;;;;19.61;50.42;99238.88;4734872;30;20114;-64
2021/08/29 06:37:40;;;;;;;22.85;11.93;;;;;;;19.65;50.67;99234.53;4722680;30;20390;-62
2021/08/29 06:40:07;;;;;;;26.90;12.02;;;;;;;19.53;51.21;99229.66;4736182;30;20151;-65
2021/08/29 06:42:32;;;;;;;17.30;10.90;;;;;;;19.61;51.08;99236.97;4752040;30;20527;-62
2021/08/29 06:45:27;;;;;;;19.20;11.32;;;;;;;19.65;51.36;99232.66;4740223;30;20067;-60
2021/08/29 06:48:12;;;;;;;17.95;10.85;;;;;;;19.64;51.21;99238.28;4751890;30;20146;-62
2021/08/29 06:50:56;;;;;;;16.35;11.20;;;;;;;19.66;50.99;99231.53;4738294;30;20048;-63
2021/08/29 06:53:45;;;;;;;17.92;11.23;;;;;;;19.66;50.80;99236.13;4702600;30;20066;-63
2021/08/29 06:56:34;;;;;;;21.42;11.80;;;;;;;19.60;51.12;99232.72;4734198;30;20059;-64
2021/08/29 06:59:07;;;;;;;18.20;11.13;;;;;;;19.62;51.52;99237.78;4735936;30;20147;-66
2021/08/29 07:01:33;;;;;;;18.73;10.70;;;;;;;19.66;52.15;99238.81;4735661;30;20607;-65
2021/08/29 07:03:59;;;;;;;15.88;11.55;;;;;;;19.71;51.05;99241.41;4720785;30;20097;-65
2021/08/29 07:06:25;;;;;;;20.15;11.88;;;;;;;19.74;50.70;99233.53;4735357;30;20055;-62
2021/08/29 07:08:59;;;;;;;22.00;12.13;;;;;;;19.66;50.95;99236.91;4736719;30;20071;-62
2021/08/29 07:11:25;;;;;;;19.83;12.18;;;;;;;19.57;51.47;99232.53;4735225;30;20056;-63
2021/08/29 07:14:10;;;;;;;22.20;11.77;;;;;;;19.54;51.54;99222.38;4751063;30;20048;-63
2021/08/29 07:16:35;;;;;;;25.52;11.95;;;;;;;19.59;51.62;99220.38;4751196;30;20062;-63
2021/08/29 07:19:01;;;;;;;19.30;11.65;;;;;;;19.51;51.63;99215.69;4734989;30;20047;-63
2021/08/29 07:21:46;;;;;;;18.98;11.90;;;;;;;19.35;52.58;99212.50;4737762;30;20059;-63
2021/08/29 07:24:30;;;;;;;21.77;12.40;;;;;;;19.35;51.82;99209.03;4722915;30;20059;-63
2021/08/29 07:27:15;;;;;;;22.10;12.10;;;;;;;19.43;52.47;99194.91;4737566;30;20069;-62
2021/08/29 07:30:16;;;;;;;19.60;11.48;;;;;;;19.47;52.16;99212.81;4731195;30;20060;-62
2021/08/29 07:32:50;;;;;;;17.67;11.90;;;;;;;19.52;51.96;99211.91;4746584;30;20205;-63
2021/08/29 07:35:16;;;;;;;18.38;10.70;;;;;;;19.55;52.02;99199.75;4734820;30;20052;-65
2021/08/29 07:38:04;;;;;;;19.00;10.60;;;;;;;19.56;52.07;99198.66;4751445;30;20060;-62
2021/08/29 07:40:36;;;;;;;22.48;11.50;;;;;;;19.62;51.68;99195.56;4749720;30;20039;-64
2021/08/29 07:43:02;;;;;;;23.33;11.95;;;;;;;19.68;51.65;99196.28;4735270;30;20404;-63
2021/08/29 07:45:28;;;;;;;20.90;11.82;;;;;;;19.69;52.02;99203.25;4734802;30;20541;-63
2021/08/29 07:47:55;;;;;;;20.58;11.52;;;;;;;19.67;52.46;99192.00;4734514;30;20048;-62
2021/08/29 07:50:22;;;;;;;20.83;11.55;;;;;;;19.80;52.56;99203.84;4734700;30;20396;-64
2021/08/29 07:52:48;;;;;;;20.80;12.10;;;;;;;19.83;52.26;99214.78;4720636;30;20063;-63
2021/08/29 07:55:32;;;;;;;21.90;11.23;;;;;;;19.86;52.05;99202.63;4750829;30;20051;-66
2021/08/29 07:58:20;;;;;;;18.48;11.48;;;;;;;19.91;51.74;99206.00;4723074;30;20135;-65
2021/08/29 08:00:48;;;;;;;16.08;10.95;;;;;;;19.94;52.09;99194.63;4720622;30;20083;-69
2021/08/29 08:03:33;;;;;;;18.73;11.25;;;;;;;20.00;51.80;99206.06;4750757;30;20086;-66
2021/08/29 08:06:17;;;;;;;16.40;10.57;;;;;;;20.12;51.20;99194.78;4750468;30;20059;-64
2021/08/29 08:08:48;;;;;;;24.67;11.63;;;;;;;20.17;51.17;99194.63;4721428;30;20095;-66
2021/08/29 08:11:29;;;;;;;19.48;10.70;;;;;;;20.24;50.69;99189.63;4750657;30;20079;-65
2021/08/29 08:13:55;;;;;;;18.50;10.50;;;;;;;20.20;50.88;99184.03;4734744;30;20055;-66
2021/08/29 08:16:21;;;;;;;20.70;11.25;;;;;;;20.33;50.82;99195.06;4734938;30;20055;-65
2021/08/29 08:18:46;;;;;;;26.65;12.57;;;;;;;20.42;50.34;99193.22;4720370;30;20432;-67
2021/08/29 08:21:12;;;;;;;21.35;11.35;;;;;;;20.45;51.05;99186.44;4720111;30;20174;-66
2021/08/29 08:24:07;;;;;;;17.00;11.20;;;;;;;20.56;50.61;99188.59;4746568;30;20064;-66
2021/08/29 08:26:42;;;;;;;25.33;12.32;;;;;;;20.61;49.88;99187.66;4735914;30;20114;-65
2021/08/29 08:29:33;;;;;;;22.42;11.25;;;;;;;20.69;49.89;99178.84;4730740;30;20078;-66
2021/08/29 08:32:05;;;;;;;21.95;10.10;;;;;;;20.72;49.75;99180.13;4716731;30;20075;-66
2021/08/29 08:34:51;;;;;;;18.60;10.18;;;;;;;20.77;49.41;99171.91;4704073;30;20060;-66
2021/08/29 08:37:33;;;;;;;15.88;10.15;;;;;;;20.77;49.56;99169.22;4715985;30;20465;-66
2021/08/29 08:40:09;;;;;;;22.38;11.65;;;;;;;20.74;50.15;99180.63;4716064;30;20512;-65
2021/08/29 08:42:47;;;;;;;22.30;12.57;;;;;;;20.69;50.21;99176.16;4715993;30;20057;-65
2021/08/29 08:45:33;;;;;;;19.83;10.68;;;;;;;20.78;50.45;99189.66;4730535;30;20061;-65
2021/08/29 08:48:21;;;;;;;19.73;10.57;;;;;;;20.95;50.15;99184.34;4730412;30;20126;-65
2021/08/29 08:51:08;;;;;;;19.73;10.85;;;;;;;21.16;49.08;99176.50;4730402;30;20067;-66
2021/08/29 08:53:54;;;;;;;18.67;10.82;;;;;;;21.30;48.79;99162.91;4730548;30;20595;-66
2021/08/29 08:56:39;;;;;;;18.58;11.68;;;;;;;21.31;48.77;99164.47;4730395;30;20061;-66
2021/08/29 08:59:35;;;;;;;19.27;11.13;;;;;;;21.32;49.03;99157.97;4703163;30;20061;-66
2021/08/29 09:02:40;;;;;;;20.55;10.40;;;;;;;21.39;48.87;99165.66;4690882;30;20058;-66
2021/08/29 09:05:25;;;;;;;22.20;10.75;;;;;;;21.41;49.34;99174.19;4695521;30;20080;-67
2021/08/29 09:07:57;;;;;;;19.02;10.73;;;;;;;21.47;48.71;99170.25;4694680;30;20061;-67
2021/08/29 09:10:23;;;;;;;18.02;10.23;;;;;;;21.45;48.71;99167.09;4715770;30;20135;-67
2021/08/29 09:13:02;;;;;;;18.13;10.70;;;;;;;21.43;48.74;99172.78;4715717;30;20149;-66
2021/08/29 09:15:29;;;;;;;21.70;10.88;;;;;;;21.45;49.25;99172.47;4730285;30;20056;-67
2021/08/29 09:17:55;;;;;;;21.45;10.90;;;;;;;21.48;49.08;99169.94;4715666;30;20048;-67
2021/08/29 09:20:28;;;;;;;21.15;10.18;;;;;;;21.54;48.72;99170.59;4702952;30;20591;-67
2021/08/29 09:23:00;;;;;;;17.55;10.48;;;;;;;21.60;48.76;99163.94;4718860;30;20060;-67
2021/08/29 09:25:43;;;;;;;16.95;11.18;;;;;;;21.62;48.69;99161.72;4720596;30;20052;-66
2021/08/29 09:28:35;;;;;;;16.00;10.77;;;;;;;21.54;48.94;99184.06;4731761;30;20064;-66
2021/08/29 09:31:05;;;;;;;19.67;10.35;;;;;;;21.40;48.99;99191.50;4731356;30;20161;-68
2021/08/29 09:33:33;;;;;;;20.23;11.02;;;;;;;21.24;49.56;99186.50;4737659;30;20048;-75
2021/08/29 09:36:05;;;;;;;15.73;10.35;;;;;;;21.20;50.52;99196.31;4708986;30;20059;-66
2021/08/29 09:38:41;;;;;;;16.27;10.35;;;;;;;21.21;50.72;99180.97;4753095;30;20147;-65
2021/08/29 09:41:25;;;;;;;19.08;10.27;;;;;;;21.36;49.90;99177.03;4753276;30;20055;-65
2021/08/29 09:44:17;;;;;;;22.50;12.25;;;;;;;21.48;50.10;99188.03;4722369;30;20105;-65
2021/08/29 09:47:04;;;;;;;17.60;10.75;;;;;;;21.72;49.29;99203.78;4737186;30;20141;-66
2021/08/29 09:49:50;;;;;;;21.30;10.80;;;;;;;21.82;49.04;99208.84;4752954;30;20117;-64
2021/08/29 09:52:29;;;;;;;19.33;9.90;;;;;;;21.92;48.90;99211.25;4737115;30;20427;-67
2021/08/29 09:55:12;;;;;;;16.60;9.80;;;;;;;22.12;48.78;99198.22;4724788;30;20067;-66
2021/08/29 09:57:56;;;;;;;19.05;10.10;;;;;;;22.33;48.77;99196.50;4739565;30;20102;-66
2021/08/29 10:01:09;;;;;;;17.17;10.40;;;;;;;22.31;47.88;99176.31;4722272;30;20044;-66
2021/08/29 10:03:50;;;;;;;18.63;10.23;;;;;;;22.19;47.80;99185.88;4736810;30;20048;-62
2021/08/29 10:06:28;;;;;;;19.92;9.80;;;;;;;22.25;47.79;99183.00;4721578;30;20056;-63
2021/08/29 10:09:01;;;;;;;17.88;10.80;;;;;;;22.27;47.72;99180.78;4736833;30;20095;-62
2021/08/29 10:11:41;;;;;;;19.98;10.57;;;;;;;22.29;47.54;99168.53;4738822;30;20435;-62
2021/08/29 10:14:08;;;;;;;17.00;10.73;;;;;;;22.31;47.49;99182.50;4722623;30;20056;-63
2021/08/29 10:16:54;;;;;;;18.23;10.65;;;;;;;22.43;47.57;99174.53;4727469;30;20147;-63
2021/08/29 10:19:40;;;;;;;17.58;9.80;;;;;;;22.64;47.67;99171.94;4702171;30;20114;-63
2021/08/29 10:22:24;;;;;;;19.92;9.98;;;;;;;22.74;47.60;99165.41;4702862;30;20057;-64
2021/08/29 10:24:51;;;;;;;22.15;11.00;;;;;;;22.82;47.16;99166.47;4700486;30;20053;-64
2021/08/29 10:27:19;;;;;;;20.55;10.88;;;;;;;22.89;47.02;99164.09;4714471;30;20065;-63
2021/08/29 10:30:08;;;;;;;18.63;10.05;;;;;;;22.90;46.89;99168.38;4714705;30;20796;-64
2021/08/29 10:32:57;;;;;;;24.10;10.73;;;;;;;22.75;47.61;99160.81;4715182;30;20428;-62
2021/08/29 10:35:53;;;;;;;18.52;9.88;;;;;;;;;;4703877;30;20071;-62
2021/08/29 10:38:42;;;;;;;17.83;10.20;;;;;;;23.05;46.09;99175.97;4706962;30;20065;-64
2021/08/29 10:41:36;;;;;;;17.23;10.30;;;;;;;23.26;45.75;99178.72;4712519;30;20148;-65
2021/08/29 10:44:13;;;;;;;17.90;10.35;;;;;;;23.50;45.24;99175.41;4728614;30;20122;-64
2021/08/29 10:46:58;;;;;;;21.95;10.35;;;;;;;23.69;44.83;99176.88;4718512;30;20065;-64
2021/08/29 10:49:47;;;;;;;18.55;10.57;;;;;;;23.80;44.68;99175.38;4714481;30;20062;-64
2021/08/29 10:52:14;;;;;;;17.63;9.77;;;;;;;23.76;44.72;99174.44;4736055;30;20101;-62
2021/08/29 10:54:54;;;;;;;17.00;10.73;;;;;;;23.64;45.10;99183.25;4751785;30;20055;-62
2021/08/29 10:57:33;;;;;;;15.40;9.82;;;;;;;23.52;45.45;99178.56;4735924;30;20504;-62
2021/08/29 11:00:10;;;;;;;19.55;10.55;;;;;;;23.45;45.96;99174.81;4750654;30;20101;-62
2021/08/29 11:02:42;;;;;;;18.58;10.32;;;;;;;23.50;46.02;99174.59;4750750;30;20266;-62
2021/08/29 11:05:29;;;;;;;;;;;;;;;23.39;45.79;99171.50;4752129;30;20252;-64
2021/08/29 11:07:59;;;;;;;16.83;10.10;;;;;;;23.30;46.18;99171.53;4765131;30;20020;-64
2021/08/29 11:10:37;;;;;;;17.15;10.52;;;;;;;23.26;46.92;99170.59;4721050;30;20135;-64
2021/08/29 11:13:28;;;;;;;20.48;11.45;;;;;;;23.33;46.69;99175.50;4735952;30;20087;-63
2021/08/29 11:16:12;;;;;;;19.38;11.32;;;;;;;23.35;46.56;99175.97;4751783;30;20324;-72
2021/08/29 11:19:02;;;;;;;18.00;10.63;;;;;;;23.33;46.15;99172.81;4738248;30;20059;-63
2021/08/29 11:21:37;;;;;;;19.50;10.18;;;;;;;23.35;46.65;99181.38;4735556;30;20056;-63
2021/08/29 11:24:50;;;;;;;24.15;10.52;;;;;;;23.42;46.18;99170.06;4696956;30;20049;-63
2021/08/29 11:27:35;;;;;;;17.58;10.63;;;;;;;23.66;45.66;99172.13;4728871;30;20537;-63
2021/08/29 11:30:34;;;;;;;21.77;10.13;;;;;;;23.88;46.00;99166.38;4715721;30;20144;-63
2021/08/29 11:33:12;;;;;;;17.45;9.80;;;;;;;23.94;45.87;99172.38;4699305;30;20076;-61
2021/08/29 11:35:48;;;;;;;22.90;10.20;;;;;;;23.95;45.76;99179.41;4699142;30;20060;-62
2021/08/29 11:38:36;;;;;;;19.45;10.00;;;;;;;24.03;45.64;99179.31;4713922;30;20072;-62
2021/08/29 11:41:16;;;;;;;17.58;10.07;;;;;;;24.13;45.09;99175.41;4685161;30;20056;-63
2021/08/29 11:43:46;;;;;;;18.45;11.20;;;;;;;24.23;44.83;99179.63;4698840;30;20179;-64
2021/08/29 11:46:16;;;;;;;21.52;10.45;;;;;;;24.32;44.62;99180.31;4713712;30;20076;-64
2021/08/29 11:49:03;;;;;;;19.48;9.80;;;;;;;24.35;44.85;99178.88;4699179;30;20041;-63
2021/08/29 11:51:31;;;;;;;18.02;10.57;;;;;;;24.29;44.94;99177.50;4699051;30;20468;-62
2021/08/29 11:54:06;;;;;;;21.75;10.10;;;;;;;24.18;45.42;99172.50;4702892;30;20049;-62